Airfield :
LOGIN :

Register | Disclaimer

   EN    FR    IT 

 










Legend :    VFR   Marginal VFR   IFR   Intensive IFR   Very Intensive IFR
Visi :
Ceiling :
>= 8 km
>= 3000ft
5 to 8 km
1000 to 3000 ft
1500m to 5 km
500 to 1000 ft
800 to 1500m
200 to 500 ft
< 800m
< 200 ft
Symbols :   Thunderstorms  Fog  Heavy snow  Heavy precipitations  Wind > 20 kt
SIGMETs :     Misc.  Thunderstorms  Icing  Turbulence  Mountain Waves  Volcanic Ashes






- Airport Elevation : 277 ft
- IATA code : JER


EGJJ - Jersey

CURRENT METAR :
  • 200250Z AUTO 21016KT 9999 FEW028/// OVC037/// 08/07 Q1016 RERA

EXPIRED METARs :
  • 200220Z AUTO 20015KT 9999 FEW011/// SCT014/// OVC038/// 08/07 Q1017 RERA
  • 200150Z AUTO 22018KT 9999 FEW009/// SCT011/// BKN015/// 08/07 Q1017 REDZ
  • 200120Z AUTO 21013KT 9999 BKN016/// OVC018/// 09/07 Q1018 REDZ
  • 200050Z AUTO 21016KT 9999 SCT020/// BKN023/// BKN026/// 09/07 Q1018 RERA

TAF TAF EGJJ
Valid from the 20 at 03:00 until the 20 at 12:00 UTC


200159Z 2003/2012 20014KT 9999 FEW012 SCT018 BKN040
PROB30
TEMPO 2003/2006 9000 -RA BKN012
BECMG 2008/2011 21024KT
PROB40
TEMPO 2010/2012 8000 RA BKN014
ATIS : +44 1534 498 073



MET'MAP, your aeronautical weather chart ! - Copyright ORBIFLY December 2007 - Disclaimer

ORBIFLY MET'MAP TEAM :

Programming & Development : Alexandra Zaïnal
Concept & original design : Baudouin d'Aumeries
Assistance for programming : Marc-Olivier Méhu
Technical & hardware support : Manuel Goepfert

Contact : metmap@orbifly.com




SOURCES & CREDITS :

   NOAA